Time;durP1;ratioP1;P1;durP2;ratioP2;P2;SDS_P1;SDS_P2;PMS_P1;PMS_P2;Temp;Humidity;BMP_temperature;BMP_pressure;BME280_temperature;BME280_humidity;BME280_pressure;Samples;Min_cycle;Max_cycle;Signal;HPM_P1;HPM_P2
2023/01/18 00:01:36;;;;;;;8.35;4.53;;;;;;;0.36;100.00;95848.44;4980154;28;20033;-71
2023/01/18 00:04:01;;;;;;;6.07;3.13;;;;;;;0.28;100.00;95860.16;4988436;28;20034;-71
2023/01/18 00:06:27;;;;;;;9.55;4.28;;;;;;;0.28;100.00;95864.66;4971572;28;20046;-71
2023/01/18 00:08:53;;;;;;;8.38;4.20;;;;;;;0.27;100.00;95869.16;4963149;28;20037;-71
2023/01/18 00:11:19;;;;;;;7.90;4.57;;;;;;;0.34;100.00;95864.63;4967081;28;20050;-71
2023/01/18 00:13:44;;;;;;;8.88;4.38;;;;;;;0.36;100.00;95867.06;4972716;28;20065;-71
2023/01/18 00:16:19;;;;;;;9.35;4.50;;;;;;;0.38;100.00;95873.81;4987105;28;20030;-71
2023/01/18 00:18:54;;;;;;;8.75;4.43;;;;;;;0.42;100.00;95879.53;4964641;28;20018;-71
2023/01/18 00:21:20;;;;;;;8.93;4.05;;;;;;;0.39;100.00;95882.59;4987464;28;20031;-71
2023/01/18 00:23:45;;;;;;;8.07;4.57;;;;;;;0.38;100.00;95873.81;4978280;28;20142;-71
2023/01/18 00:26:11;;;;;;;8.55;4.55;;;;;;;0.30;100.00;95875.91;4986874;28;20063;-71
2023/01/18 00:28:38;;;;;;;6.47;3.67;;;;;;;0.32;100.00;95872.00;4988187;28;20026;-71
2023/01/18 00:31:17;;;;;;;10.35;4.97;;;;;;;0.31;100.00;95880.19;4970095;28;20101;-71
2023/01/18 00:33:48;;;;;;;7.90;4.40;;;;;;;0.32;100.00;95881.81;4976219;28;20122;-71
2023/01/18 00:36:14;;;;;;;8.00;4.57;;;;;;;0.27;100.00;95868.34;4993303;28;20057;-71
2023/01/18 00:38:40;;;;;;;10.18;5.40;;;;;;;0.33;100.00;95876.28;4975176;28;20026;-71
2023/01/18 00:41:05;;;;;;;9.60;4.78;;;;;;;0.40;100.00;95881.59;4986053;28;20038;-71
2023/01/18 00:43:39;;;;;;;10.07;5.25;;;;;;;0.36;100.00;95878.50;4974078;28;20057;-71
2023/01/18 00:46:14;;;;;;;9.95;4.75;;;;;;;0.36;100.00;95878.50;4994189;28;20031;-71
2023/01/18 00:48:41;;;;;;;7.35;4.40;;;;;;;0.34;100.00;95872.63;4962113;28;20396;-71
2023/01/18 00:51:08;;;;;;;8.18;4.63;;;;;;;0.37;100.00;95874.03;4978451;28;20396;-71
2023/01/18 00:53:34;;;;;;;9.30;5.10;;;;;;;0.38;100.00;95878.31;4987658;28;20023;-71
2023/01/18 00:55:59;;;;;;;8.18;4.47;;;;;;;0.33;100.00;95878.94;4976363;28;20606;-71
2023/01/18 00:58:24;;;;;;;10.88;5.07;;;;;;;0.37;100.00;95885.47;4976801;28;20030;-71
2023/01/18 01:00:51;;;;;;;8.68;4.88;;;;;;;0.36;100.00;95889.16;4991753;28;20106;-71
2023/01/18 01:03:17;;;;;;;10.00;5.47;;;;;;;0.33;100.00;95886.09;4981157;28;20034;-71
2023/01/18 01:08:26;;;;;;;11.82;5.95;;;;;;;0.27;100.00;95879.78;4984456;28;20085;-71
2023/01/18 01:11:03;;;;;;;10.60;5.30;;;;;;;0.27;100.00;95876.31;4993010;28;20022;-71
2023/01/18 01:27:10;;;;;;;9.85;5.28;;;;;;;0.39;100.00;95887.91;4988575;28;20064;-71
2023/01/18 01:29:36;;;;;;;13.27;5.63;;;;;;;0.41;100.00;95896.50;4992816;28;20584;-71
2023/01/18 01:32:02;;;;;;;11.90;5.97;;;;;;;0.32;100.00;95892.47;4967728;28;20078;-71
2023/01/18 01:34:28;;;;;;;11.68;5.93;;;;;;;0.27;100.00;95897.59;4985971;28;20108;-71
2023/01/18 01:36:54;;;;;;;11.40;5.82;;;;;;;0.37;100.00;95909.41;4969812;28;20745;-71
2023/01/18 01:39:20;;;;;;;10.82;5.95;;;;;;;0.27;100.00;95906.38;4976525;28;20400;-71
2023/01/18 01:41:45;;;;;;;12.50;6.35;;;;;;;0.32;100.00;95919.06;4987568;28;20038;-70
2023/01/18 01:44:16;;;;;;;9.45;5.72;;;;;;;0.30;100.00;95918.44;4981352;28;20034;-71
2023/01/18 01:46:51;;;;;;;12.32;5.85;;;;;;;0.27;100.00;95926.84;4979664;28;20034;-71
2023/01/18 01:49:22;;;;;;;9.13;5.28;;;;;;;0.21;100.00;95923.19;4982800;28;20030;-71
2023/01/18 01:51:52;;;;;;;13.13;5.80;;;;;;;0.31;100.00;95933.34;4985200;28;20031;-71
2023/01/18 01:54:23;;;;;;;11.30;5.95;;;;;;;0.32;100.00;95935.00;4989207;28;20144;-71
2023/01/18 01:56:54;;;;;;;11.30;6.03;;;;;;;0.28;100.00;95926.63;4977526;28;20035;-71
2023/01/18 01:59:20;;;;;;;11.02;6.30;;;;;;;0.20;100.00;95922.34;4989306;28;20026;-71
2023/01/18 02:01:46;;;;;;;10.27;5.82;;;;;;;0.24;100.00;95929.91;4974416;28;20026;-71
2023/01/18 02:04:12;;;;;;;11.25;5.93;;;;;;;0.27;100.00;95932.16;4978712;28;20075;-71
2023/01/18 02:06:38;;;;;;;13.13;6.00;;;;;;;0.20;100.00;95930.31;4982418;28;20475;-71
2023/01/18 02:09:08;;;;;;;10.05;5.85;;;;;;;0.31;100.00;95933.34;4982509;28;20030;-71
2023/01/18 02:11:34;;;;;;;10.80;5.63;;;;;;;0.28;100.00;95936.44;4972872;28;20539;-71
2023/01/18 02:14:03;;;;;;;11.77;6.03;;;;;;;0.25;100.00;95940.34;4993028;28;20037;-71
2023/01/18 02:16:37;;;;;;;11.02;6.35;;;;;;;0.25;100.00;95942.19;4984170;28;20105;-71
2023/01/18 02:19:09;;;;;;;11.63;6.40;;;;;;;0.29;100.00;95941.56;4987851;28;20117;-71
2023/01/18 02:21:45;;;;;;;12.18;5.85;;;;;;;0.27;100.00;95942.78;4989049;28;20407;-71
2023/01/18 02:24:39;;;;;;;13.80;6.68;;;;;;;0.26;100.00;95951.78;4989491;28;20036;-71
2023/01/18 02:27:15;;;;;;;12.63;7.10;;;;;;;0.19;100.00;95949.16;4972869;28;20615;-71
2023/01/18 02:29:40;;;;;;;14.60;6.80;;;;;;;0.27;100.00;95954.25;4967301;28;20018;-71
2023/01/18 02:32:29;;;;;;;15.10;7.10;;;;;;;0.30;100.00;95963.66;4993486;28;20510;-71
2023/01/18 02:35:09;;;;;;;14.77;6.72;;;;;;;0.28;100.00;95952.41;4991304;28;20030;-71
2023/01/18 02:37:41;;;;;;;11.30;6.07;;;;;;;0.32;100.00;95958.94;4985436;28;20029;-71
2023/01/18 02:40:12;;;;;;;12.25;6.38;;;;;;;0.33;100.00;95961.38;4985410;28;20030;-71
2023/01/18 02:48:13;;;;;;;13.73;6.75;;;;;;;0.36;100.00;95965.47;4994703;28;20170;-71
2023/01/18 02:50:38;;;;;;;10.75;6.20;;;;;;;0.33;100.00;95963.22;5003591;28;20015;-71
2023/01/18 02:53:03;;;;;;;13.40;6.88;;;;;;;0.32;100.00;95964.25;4998985;28;20091;-71
2023/01/18 02:55:41;;;;;;;11.90;6.60;;;;;;;0.32;100.00;95964.25;4984058;28;20026;-71
2023/01/18 02:58:15;;;;;;;13.52;6.50;;;;;;;0.30;100.00;95972.44;5002640;28;20113;-71
2023/01/18 03:00:46;;;;;;;13.85;7.18;;;;;;;0.33;100.00;95977.34;4986370;28;20026;-71
2023/01/18 03:03:13;;;;;;;15.27;7.25;;;;;;;0.36;100.00;95968.13;4984200;28;20038;-70
2023/01/18 03:05:42;;;;;;;12.95;7.10;;;;;;;0.28;100.00;95955.06;4989935;28;20034;-71
2023/01/18 03:08:42;;;;;;;10.48;6.10;;;;;;;0.27;100.00;95964.88;4997206;28;20030;-71
2023/01/18 03:11:17;;;;;;;13.52;6.70;;;;;;;0.27;100.00;95964.88;4992408;28;20090;-71
2023/01/18 03:14:00;;;;;;;13.70;6.72;;;;;;;0.32;100.00;95978.38;4987404;28;20067;-71
2023/01/18 03:16:56;;;;;;;13.43;7.13;;;;;;;0.24;100.00;95972.44;5006845;28;20037;-71
2023/01/18 03:22:16;;;;;;;12.02;6.65;;;;;;;0.33;100.00;95979.19;5004812;28;20058;-71
2023/01/18 03:24:44;;;;;;;14.07;6.93;;;;;;;0.30;100.00;95974.28;5001558;28;20027;-71
2023/01/18 03:35:27;;;;;;;13.32;6.30;;;;;;;0.25;100.00;95984.72;4996945;28;20258;-71
2023/01/18 03:37:55;;;;;;;11.98;6.68;;;;;;;0.33;100.00;95981.84;4986437;28;20325;-71
2023/01/18 03:40:26;;;;;;;12.52;6.97;;;;;;;0.35;100.00;95979.78;5003260;28;20037;-72
2023/01/18 03:43:02;;;;;;;11.57;6.45;;;;;;;0.30;100.00;95974.28;5003445;28;20064;-71
2023/01/18 03:45:32;;;;;;;13.50;6.75;;;;;;;0.42;100.00;95983.25;4980637;28;20361;-71
2023/01/18 03:47:58;;;;;;;12.38;6.68;;;;;;;0.40;100.00;95994.09;4998487;28;20098;-71
2023/01/18 03:50:38;;;;;;;11.88;5.70;;;;;;;0.47;100.00;95996.72;4989338;28;20034;-71
2023/01/18 03:53:11;;;;;;;12.00;6.03;;;;;;;0.47;100.00;95998.56;4995536;28;20061;-71
2023/01/18 03:55:43;;;;;;;10.48;5.25;;;;;;;0.41;100.00;95994.91;4998705;28;20015;-71
2023/01/18 03:58:11;;;;;;;8.57;5.03;;;;;;;0.40;100.00;95995.94;4985096;28;20120;-71
2023/01/18 04:00:38;;;;;;;9.57;5.30;;;;;;;0.38;100.00;95993.47;4972266;28;20027;-71
2023/01/18 04:03:04;;;;;;;10.20;5.70;;;;;;;0.30;100.00;95996.38;4958963;28;20023;-71
2023/01/18 04:05:30;;;;;;;9.63;5.75;;;;;;;0.28;100.00;95997.59;4978726;28;20061;-71
2023/01/18 04:07:55;;;;;;;9.65;5.75;;;;;;;0.22;100.00;96002.72;4973659;28;20053;-71
2023/01/18 04:10:21;;;;;;;11.13;5.03;;;;;;;0.26;100.00;96007.63;4977410;28;20037;-71
2023/01/18 04:12:46;;;;;;;9.18;5.50;;;;;;;0.21;100.00;96002.94;4978892;28;20054;-71
2023/01/18 04:15:11;;;;;;;9.15;5.63;;;;;;;0.20;100.00;96010.06;4964664;28;20081;-71
2023/01/18 04:17:37;;;;;;;10.48;5.25;;;;;;;0.29;100.00;96017.84;4986300;28;20019;-71
2023/01/18 04:20:03;;;;;;;10.77;5.65;;;;;;;0.25;100.00;96016.63;4984223;28;20039;-71
2023/01/18 04:24:53;;;;;;;11.13;5.78;;;;;;;0.28;100.00;96021.53;5044562;22;20081;-64
2023/01/18 04:27:19;;;;;;;9.43;5.57;;;;;;;0.28;100.00;96030.31;5013135;28;20033;-59
2023/01/18 04:29:44;;;;;;;9.50;5.68;;;;;;;0.30;100.00;96032.78;4996885;28;20041;-60
2023/01/18 04:32:10;;;;;;;10.05;5.25;;;;;;;0.29;100.00;96025.81;4996818;28;20035;-60
2023/01/18 04:34:35;;;;;;;9.95;5.60;;;;;;;0.35;100.00;96040.97;5002017;28;20080;-60
2023/01/18 04:37:01;;;;;;;10.65;5.32;;;;;;;0.35;100.00;96035.63;4995407;28;20037;-60
2023/01/18 04:39:27;;;;;;;7.90;4.65;;;;;;;0.33;100.00;96033.19;4990395;28;20041;-60
2023/01/18 04:41:52;;;;;;;7.20;4.80;;;;;;;0.35;100.00;96033.78;4992822;28;20129;-60
2023/01/18 04:44:17;;;;;;;9.98;5.25;;;;;;;0.25;100.00;96040.56;5008175;28;20030;-60
2023/01/18 04:46:43;;;;;;;9.40;5.22;;;;;;;0.32;100.00;96038.72;4998449;28;20022;-60
2023/01/18 04:49:14;;;;;;;7.07;4.18;;;;;;;0.35;100.00;96040.97;4990274;28;20074;-59
2023/01/18 04:51:41;;;;;;;6.88;4.40;;;;;;;0.35;100.00;96043.63;4985060;28;20382;-60
2023/01/18 04:54:07;;;;;;;10.35;4.68;;;;;;;0.36;100.00;96046.06;4992826;28;20542;-60
2023/01/18 04:56:33;;;;;;;7.90;4.55;;;;;;;0.42;100.00;96055.88;4992550;28;20026;-60
2023/01/18 04:58:59;;;;;;;8.65;4.30;;;;;;;0.33;100.00;96057.09;4989030;28;20026;-60
2023/01/18 05:01:25;;;;;;;8.90;4.13;;;;;;;0.27;100.00;96049.16;5012331;28;20508;-59
2023/01/18 05:03:52;;;;;;;6.53;3.90;;;;;;;0.34;100.00;96072.06;4978967;28;20026;-59
2023/01/18 05:06:20;;;;;;;8.38;3.85;;;;;;;0.29;100.00;96071.00;4984817;28;20049;-59
2023/01/18 05:08:46;;;;;;;6.47;3.40;;;;;;;0.20;100.00;96075.72;4991758;28;20496;-59
2023/01/18 05:11:14;;;;;;;6.43;3.95;;;;;;;0.16;100.00;96085.16;4992579;28;20042;-61
2023/01/18 05:13:40;;;;;;;6.13;3.25;;;;;;;0.18;100.00;96091.91;4995932;28;20112;-59
2023/01/18 05:16:11;;;;;;;5.88;3.20;;;;;;;0.19;100.00;96093.53;4996438;28;20577;-59
2023/01/18 05:18:36;;;;;;;5.75;3.22;;;;;;;0.08;100.00;96091.50;4997348;28;20034;-59
2023/01/18 05:21:02;;;;;;;4.38;2.72;;;;;;;0.02;100.00;96102.91;4991299;28;20410;-59
2023/01/18 05:23:27;;;;;;;5.35;2.75;;;;;;;0.06;100.00;96120.13;4991433;28;20433;-59
2023/01/18 05:25:54;;;;;;;5.70;2.88;;;;;;;0.11;100.00;96112.34;4986137;28;20030;-59
2023/01/18 05:28:20;;;;;;;5.35;3.05;;;;;;;0.12;100.00;96121.13;4993733;28;20301;-61
2023/01/18 05:30:48;;;;;;;7.95;3.55;;;;;;;-0.02;100.00;96130.94;4995548;28;20044;-59
2023/01/18 05:33:17;;;;;;;6.45;3.38;;;;;;;-0.03;100.00;96135.44;4997792;28;20034;-58
2023/01/18 05:35:54;;;;;;;6.30;3.78;;;;;;;-0.03;100.00;96139.91;4995996;28;20567;-58
2023/01/18 05:38:20;;;;;;;7.57;3.60;;;;;;;0.01;100.00;96140.34;4993142;28;20117;-59
2023/01/18 05:40:51;;;;;;;6.82;3.70;;;;;;;-0.03;100.00;96154.06;4988965;28;20082;-60
2023/01/18 05:43:18;;;;;;;7.47;3.17;;;;;;;0.03;100.00;96152.41;4987114;28;20037;-60
2023/01/18 05:45:43;;;;;;;5.43;3.40;;;;;;;0.00;100.00;96163.47;4997467;28;20026;-60
2023/01/18 05:48:09;;;;;;;7.70;3.90;;;;;;;-0.08;100.00;96153.84;5012149;28;20033;-60
2023/01/18 05:50:38;;;;;;;5.68;3.88;;;;;;;0.03;100.00;96167.53;4989083;28;20473;-61
2023/01/18 05:53:03;;;;;;;7.13;3.95;;;;;;;-0.09;100.00;96167.31;4992018;28;20083;-60
2023/01/18 05:55:29;;;;;;;6.72;3.88;;;;;;;-0.15;100.00;96168.94;4991435;28;20030;-60
2023/01/18 05:57:54;;;;;;;6.72;3.90;;;;;;;-0.10;100.00;96186.94;4996456;28;20033;-61
2023/01/18 06:00:20;;;;;;;11.05;4.32;;;;;;;-0.12;100.00;96183.66;4996668;28;20084;-61
2023/01/18 06:02:45;;;;;;;7.03;3.90;;;;;;;-0.10;100.00;96195.72;4993364;28;20065;-61
2023/01/18 06:05:10;;;;;;;7.60;3.95;;;;;;;-0.09;100.00;96204.53;4995213;28;20128;-61
2023/01/18 06:07:36;;;;;;;6.32;3.72;;;;;;;-0.12;100.00;96210.25;4989185;28;20120;-61
2023/01/18 06:10:02;;;;;;;8.95;4.32;;;;;;;-0.14;100.00;96223.72;5009605;28;20026;-72
2023/01/18 06:12:27;;;;;;;7.18;3.90;;;;;;;-0.12;100.00;96228.84;5005657;28;20473;-71
2023/01/18 06:14:52;;;;;;;7.38;4.22;;;;;;;-0.17;100.00;96234.75;5005796;28;20113;-72
2023/01/18 06:17:18;;;;;;;8.25;4.80;;;;;;;-0.15;100.00;96246.00;5011784;28;20037;-73
2023/01/18 06:19:43;;;;;;;8.38;4.57;;;;;;;-0.16;100.00;96252.31;4991867;28;20042;-72
2023/01/18 06:22:08;;;;;;;8.63;4.53;;;;;;;-0.13;100.00;96248.44;5010281;28;20095;-72
2023/01/18 06:24:34;;;;;;;9.80;4.28;;;;;;;-0.11;100.00;96251.72;4991788;28;20033;-73
2023/01/18 06:26:59;;;;;;;9.10;4.55;;;;;;;-0.11;100.00;96260.50;4995845;28;20478;-73
2023/01/18 06:29:26;;;;;;;10.15;4.85;;;;;;;-0.08;100.00;96264.63;4996489;28;20473;-76
2023/01/18 06:31:52;;;;;;;9.30;4.35;;;;;;;-0.13;100.00;96267.03;4992065;28;20037;-73
2023/01/18 06:34:17;;;;;;;10.35;4.82;;;;;;;-0.10;100.00;96274.66;4989626;28;20034;-73
2023/01/18 06:36:44;;;;;;;8.23;4.50;;;;;;;-0.13;100.00;96267.03;5002429;28;20080;-73
2023/01/18 06:39:09;;;;;;;8.20;4.40;;;;;;;-0.14;100.00;96278.69;4995398;28;20034;-72
2023/01/18 06:41:35;;;;;;;7.82;4.50;;;;;;;-0.07;100.00;96272.41;4995448;28;20378;-72
2023/01/18 06:44:00;;;;;;;9.38;4.50;;;;;;;-0.11;100.00;96276.47;4987981;28;20132;-73
2023/01/18 06:46:26;;;;;;;10.27;4.70;;;;;;;-0.09;100.00;96289.56;4995172;28;20041;-70
2023/01/18 06:48:51;;;;;;;8.10;4.00;;;;;;;-0.05;100.00;96296.13;4991887;28;20397;-71
2023/01/18 06:51:16;;;;;;;7.38;3.75;;;;;;;-0.03;100.00;96291.41;4989396;28;20418;-71
2023/01/18 06:53:42;;;;;;;6.75;3.42;;;;;;;-0.06;100.00;96295.28;4993762;28;20429;-70
2023/01/18 06:56:12;;;;;;;8.70;3.75;;;;;;;-0.07;100.00;96298.16;4996248;28;20441;-70
2023/01/18 06:58:38;;;;;;;6.20;3.17;;;;;;;-0.04;100.00;96303.06;4987932;28;20025;-71
2023/01/18 07:01:03;;;;;;;6.82;3.47;;;;;;;-0.01;100.00;96308.81;4996032;28;20108;-71
2023/01/18 07:03:31;;;;;;;6.38;3.25;;;;;;;-0.01;100.00;96310.66;5005652;28;20393;-71
2023/01/18 07:05:59;;;;;;;6.20;3.25;;;;;;;-0.05;100.00;96312.91;4992562;28;20026;-72
2023/01/18 07:08:25;;;;;;;6.15;3.00;;;;;;;-0.01;100.00;96313.31;4989344;28;20041;-69
2023/01/18 07:10:52;;;;;;;7.47;2.97;;;;;;;-0.02;100.00;96327.63;4994981;28;20441;-71
2023/01/18 07:13:18;;;;;;;4.60;3.00;;;;;;;-0.07;100.00;96336.19;4996174;28;20504;-70
2023/01/18 07:15:44;;;;;;;5.00;2.75;;;;;;;-0.03;100.00;96332.13;5003588;28;20040;-71
2023/01/18 07:18:09;;;;;;;5.60;3.20;;;;;;;0.05;100.00;96338.28;4992405;28;20025;-71
2023/01/18 07:20:36;;;;;;;5.95;3.15;;;;;;;0.07;100.00;96350.34;5001818;28;20032;-72
2023/01/18 07:23:03;;;;;;;7.47;3.85;;;;;;;-0.03;100.00;96341.91;4991458;28;20133;-70
2023/01/18 07:25:29;;;;;;;6.05;3.40;;;;;;;0.10;100.00;96346.47;5007988;28;20037;-71
2023/01/18 07:27:57;;;;;;;7.15;3.50;;;;;;;0.11;100.00;96359.59;4993379;28;20034;-70
2023/01/18 07:30:24;;;;;;;7.07;3.78;;;;;;;0.10;100.00;96363.25;4995341;28;20489;-71
2023/01/18 07:32:51;;;;;;;7.32;3.65;;;;;;;0.09;100.00;96356.28;4988891;28;20117;-72
2023/01/18 07:35:20;;;;;;;7.15;3.90;;;;;;;0.12;100.00;96368.38;4989142;28;20026;-71
2023/01/18 07:37:51;;;;;;;8.90;4.18;;;;;;;0.15;100.00;96374.09;4992585;28;20049;-72
2023/01/18 07:40:19;;;;;;;9.85;4.32;;;;;;;0.20;100.00;96378.84;4992066;28;20030;-68
2023/01/18 07:42:45;;;;;;;11.00;4.95;;;;;;;0.20;100.00;96379.66;4994641;28;20030;-69
2023/01/18 07:45:12;;;;;;;8.52;5.13;;;;;;;0.25;100.00;96387.03;4995761;28;20113;-69
2023/01/18 07:47:41;;;;;;;13.07;5.30;;;;;;;0.22;100.00;96390.91;4976924;28;20049;-71
2023/01/18 07:50:08;;;;;;;10.75;5.18;;;;;;;0.19;100.00;96388.66;4986925;28;20026;-68
2023/01/18 07:52:33;;;;;;;12.23;5.07;;;;;;;0.24;100.00;96406.69;4996069;28;20025;-69
2023/01/18 07:54:58;;;;;;;9.30;5.28;;;;;;;0.16;100.00;96404.19;5000963;28;20397;-67
2023/01/18 07:57:24;;;;;;;7.68;4.88;;;;;;;0.21;100.00;96404.44;5000289;28;20037;-67
2023/01/18 07:59:50;;;;;;;9.48;5.45;;;;;;;0.19;100.00;96417.91;4997710;28;20022;-68
2023/01/18 08:02:15;;;;;;;9.18;5.32;;;;;;;0.19;100.00;96412.59;4985937;28;20128;-65
2023/01/18 08:04:42;;;;;;;9.88;5.30;;;;;;;0.30;100.00;96413.88;4984353;28;20038;-66
2023/01/18 08:07:07;;;;;;;11.20;5.90;;;;;;;0.38;100.00;96434.97;4995358;28;20034;-67
2023/01/18 08:09:33;;;;;;;10.95;6.18;;;;;;;0.33;100.00;96425.94;4990841;28;20040;-67
2023/01/18 08:11:59;;;;;;;9.25;5.45;;;;;;;0.48;100.00;96439.94;4996059;28;20111;-66
2023/01/18 08:14:25;;;;;;;11.80;5.97;;;;;;;0.46;100.00;96428.66;4986651;28;20034;-65
2023/01/18 08:16:50;;;;;;;9.93;5.50;;;;;;;0.58;100.00;96440.38;4999556;28;20371;-64
2023/01/18 08:19:16;;;;;;;10.25;5.38;;;;;;;0.58;100.00;96444.91;4995834;28;20068;-66
2023/01/18 08:21:41;;;;;;;9.93;5.53;;;;;;;0.60;100.00;96437.50;4999356;28;20029;-63
2023/01/18 08:24:07;;;;;;;10.00;5.13;;;;;;;0.50;100.00;96447.69;5014617;28;20030;-65
2023/01/18 08:26:33;;;;;;;8.68;4.53;;;;;;;0.57;100.00;96460.00;4993045;28;20394;-68
2023/01/18 08:28:59;;;;;;;7.60;4.95;;;;;;;0.68;100.00;96455.16;4998765;28;20109;-68
2023/01/18 08:31:26;;;;;;;9.90;5.13;;;;;;;0.67;100.00;96464.16;4995924;28;20121;-66
2023/01/18 08:33:51;;;;;;;9.55;5.05;;;;;;;0.70;100.00;96480.53;4985781;28;20458;-66
2023/01/18 08:36:20;;;;;;;8.60;4.65;;;;;;;0.81;100.00;96482.66;4997651;28;20112;-66
2023/01/18 08:38:50;;;;;;;7.55;4.25;;;;;;;0.88;100.00;96483.47;4996910;28;20026;-66
2023/01/18 08:41:17;;;;;;;7.25;4.70;;;;;;;0.89;100.00;96484.28;5011392;28;20378;-65
2023/01/18 08:43:43;;;;;;;6.03;4.40;;;;;;;0.90;100.00;96491.28;4998068;28;20100;-64
2023/01/18 08:46:08;;;;;;;7.60;4.70;;;;;;;0.88;100.00;96496.78;4994497;28;20469;-64
2023/01/18 08:48:33;;;;;;;7.10;4.03;;;;;;;0.94;100.00;96500.50;4997133;28;20037;-63
2023/01/18 08:51:01;;;;;;;6.20;3.78;;;;;;;1.04;100.00;96508.94;4989443;28;20068;-64
2023/01/18 08:53:31;;;;;;;6.50;3.80;;;;;;;1.06;100.00;96500.75;4979464;28;20041;-63
2023/01/18 08:55:57;;;;;;;7.90;4.22;;;;;;;1.21;100.00;96513.91;4988470;28;20037;-63
2023/01/18 08:58:22;;;;;;;7.20;4.50;;;;;;;1.19;100.00;96523.94;4995843;28;20030;-63
2023/01/18 09:00:49;;;;;;;8.13;4.50;;;;;;;1.34;100.00;96527.28;4992646;28;20492;-63
2023/01/18 09:03:18;;;;;;;6.82;4.18;;;;;;;1.34;100.00;96529.94;4997540;28;20091;-63
2023/01/18 09:05:44;;;;;;;7.30;3.97;;;;;;;1.21;100.00;96532.56;4995634;28;20032;-64
2023/01/18 09:08:10;;;;;;;7.47;4.53;;;;;;;1.17;100.00;96542.78;4993989;28;20026;-64
2023/01/18 09:10:37;;;;;;;6.82;4.32;;;;;;;1.23;100.00;96538.47;4985761;28;22773;-65
2023/01/18 09:13:03;;;;;;;10.18;4.28;;;;;;;1.13;100.00;96538.03;4996816;28;20117;-65
2023/01/18 09:15:28;;;;;;;6.38;4.32;;;;;;;1.14;100.00;96548.50;4989657;28;20114;-65
2023/01/18 09:17:54;;;;;;;7.70;4.30;;;;;;;1.31;100.00;96556.97;4990081;28;20030;-65
2023/01/18 09:20:19;;;;;;;8.70;4.43;;;;;;;1.48;100.00;96552.09;4991787;28;20026;-66
2023/01/18 09:22:46;;;;;;;10.43;4.40;;;;;;;1.79;100.00;96559.53;4993329;28;20079;-65
2023/01/18 09:25:12;;;;;;;5.68;3.70;;;;;;;1.78;100.00;96557.88;4996419;28;20038;-63
2023/01/18 09:27:37;;;;;;;9.50;4.53;;;;;;;1.86;100.00;96576.38;4986798;28;20029;-65
2023/01/18 09:30:04;;;;;;;8.90;4.47;;;;;;;1.82;100.00;96574.31;4983303;28;20034;-66
2023/01/18 09:32:30;;;;;;;7.85;4.03;;;;;;;1.59;100.00;96564.81;4988363;28;20466;-67
2023/01/18 09:34:55;;;;;;;6.28;3.95;;;;;;;1.71;100.00;96583.72;4997982;28;20087;-68
2023/01/18 09:37:21;;;;;;;8.80;4.70;;;;;;;1.90;100.00;96584.78;4986761;28;20474;-69
2023/01/18 09:39:47;;;;;;;6.07;3.70;;;;;;;1.92;100.00;96596.88;4983494;28;20048;-69
2023/01/18 09:42:22;;;;;;;6.30;3.85;;;;;;;1.93;100.00;96595.84;4991527;28;20038;-70
2023/01/18 09:44:54;;;;;;;6.32;3.30;;;;;;;1.93;100.00;96605.69;5007802;28;20026;-69
2023/01/18 09:47:26;;;;;;;5.97;3.55;;;;;;;2.00;100.00;96608.38;4998278;28;20114;-69
2023/01/18 09:49:58;;;;;;;6.68;3.95;;;;;;;2.09;100.00;96607.97;4991079;28;20623;-68
2023/01/18 09:52:36;;;;;;;4.95;3.30;;;;;;;2.33;100.00;96606.56;5001066;28;20057;-68
2023/01/18 09:55:32;;;;;;;5.05;3.65;;;;;;;2.47;100.00;96618.03;4992422;28;20025;-68
2023/01/18 09:58:07;;;;;;;5.32;3.60;;;;;;;2.51;100.00;96621.13;4995552;28;20112;-68
2023/01/18 10:00:38;;;;;;;6.80;3.97;;;;;;;2.66;100.00;96624.38;4996421;28;20503;-68
2023/01/18 10:03:13;;;;;;;6.15;3.85;;;;;;;2.73;100.00;96614.53;4992585;28;20042;-68
2023/01/18 10:05:48;;;;;;;6.45;3.47;;;;;;;2.81;100.00;96621.50;4996182;28;20026;-68
2023/01/18 10:08:19;;;;;;;5.72;3.28;;;;;;;2.74;100.00;96621.50;5004215;28;20030;-67
2023/01/18 10:10:54;;;;;;;4.43;3.10;;;;;;;2.69;100.00;96625.81;5012226;28;20048;-67
2023/01/18 10:13:50;;;;;;;5.35;3.30;;;;;;;2.91;100.00;96624.56;4984908;28;20046;-67
2023/01/18 10:16:17;;;;;;;5.10;3.17;;;;;;;2.96;100.00;96632.78;4990100;28;20076;-66
2023/01/18 10:18:50;;;;;;;5.80;3.20;;;;;;;2.72;100.00;96630.75;4990497;28;20093;-66
2023/01/18 10:21:23;;;;;;;5.05;3.30;;;;;;;2.84;100.00;96648.59;4993920;28;20477;-67
2023/01/18 10:24:19;;;;;;;5.22;3.45;;;;;;;2.76;100.00;96651.50;4991378;28;20040;-68
2023/01/18 10:26:46;;;;;;;5.90;3.88;;;;;;;2.77;100.00;96658.47;4999093;28;20037;-67
2023/01/18 10:29:41;;;;;;;8.32;4.10;;;;;;;2.71;100.00;96656.63;4988125;28;20445;-68
2023/01/18 10:32:16;;;;;;;7.72;4.53;;;;;;;2.84;100.00;96656.63;4995364;28;20045;-67
2023/01/18 10:34:50;;;;;;;5.60;3.75;;;;;;;2.89;100.00;96657.84;5129485;27;20422;-67
2023/01/18 10:37:43;;;;;;;8.10;4.75;;;;;;;2.76;100.00;96666.69;5100815;28;20044;-67
2023/01/18 10:40:11;;;;;;;9.32;4.90;;;;;;;2.71;100.00;96672.66;5089914;28;20102;-66
2023/01/18 10:42:48;;;;;;;10.40;4.93;;;;;;;2.78;100.00;96670.00;5097409;28;20111;-67
2023/01/18 10:45:25;;;;;;;9.20;5.43;;;;;;;2.64;100.00;96669.16;5096297;28;20530;-67
2023/01/18 10:47:53;;;;;;;12.00;5.93;;;;;;;2.39;100.00;96680.44;5081700;28;20098;-67
2023/01/18 10:50:35;;;;;;;12.02;5.82;;;;;;;2.27;100.00;96682.06;5091083;28;20024;-67
2023/01/18 10:53:37;;;;;;;10.18;6.10;;;;;;;2.29;100.00;96680.03;5108136;28;20078;-67
2023/01/18 10:56:06;;;;;;;11.57;5.25;;;;;;;2.25;100.00;96684.09;5090993;28;20119;-67
2023/01/18 10:58:50;;;;;;;9.82;5.00;;;;;;;2.20;100.00;96694.56;5095609;28;20022;-67
2023/01/18 11:01:19;;;;;;;10.65;6.00;;;;;;;2.19;100.00;96693.75;5091092;28;20062;-67
2023/01/18 11:03:48;;;;;;;10.77;5.93;;;;;;;2.18;100.00;96701.97;5088196;28;20038;-67
2023/01/18 11:06:15;;;;;;;10.68;6.05;;;;;;;2.10;100.00;96697.63;5083493;28;20023;-62
2023/01/18 11:08:42;;;;;;;10.60;5.85;;;;;;;2.17;100.00;96711.81;5098848;28;20034;-61
2023/01/18 11:12:32;;;;;;;9.57;5.63;;;;;;;2.23;100.00;96710.19;5093197;28;20111;-61
2023/01/18 11:14:27;;;;;;;12.85;6.13;;;;;;;2.54;100.00;96706.97;5096693;28;20716;-62
2023/01/18 11:17:10;;;;;;;11.35;5.63;;;;;;;2.39;100.00;96717.00;5080879;28;20033;-62
2023/01/18 11:19:38;;;;;;;11.52;5.32;;;;;;;2.62;100.00;96711.28;5096715;28;20027;-62
2023/01/18 11:22:11;;;;;;;10.27;5.50;;;;;;;2.82;100.00;96725.44;5118565;28;20110;-62
2023/01/18 11:24:37;;;;;;;10.18;5.30;;;;;;;2.96;100.00;96717.41;5078467;28;20019;-63
2023/01/18 11:27:10;;;;;;;12.25;5.40;;;;;;;3.14;100.00;96708.75;5090091;28;20024;-63
2023/01/18 11:29:41;;;;;;;12.25;5.20;;;;;;;3.27;100.00;96714.09;5088682;28;20098;-63
2023/01/18 11:32:22;;;;;;;10.07;5.05;;;;;;;3.53;100.00;96713.19;5108590;28;20076;-63
2023/01/18 11:34:50;;;;;;;13.43;5.43;;;;;;;3.82;100.00;96719.06;5080071;28;20404;-63
2023/01/18 11:37:33;;;;;;;9.27;4.72;;;;;;;4.21;100.00;96722.59;5079202;28;20054;-63
2023/01/18 11:40:25;;;;;;;8.68;4.93;;;;;;;4.46;100.00;96726.16;5093879;28;20035;-63
2023/01/18 11:42:57;;;;;;;10.02;5.38;;;;;;;4.96;100.00;96726.22;5093864;28;20028;-64
2023/01/18 11:45:39;;;;;;;11.32;5.65;;;;;;;5.34;100.00;96735.97;5078709;28;20038;-63
2023/01/18 11:48:27;;;;;;;12.52;6.05;;;;;;;5.22;100.00;96729.72;5069024;28;20028;-63
2023/01/18 11:51:09;;;;;;;11.48;5.00;;;;;;;5.35;100.00;96744.88;5077687;28;20046;-63
2023/01/18 11:53:55;;;;;;;11.75;5.60;;;;;;;5.21;100.00;96738.78;5076111;28;20115;-64
2023/01/18 11:56:44;;;;;;;11.77;6.00;;;;;;;4.93;100.00;96742.75;5062063;28;20522;-63
2023/01/18 11:59:30;;;;;;;7.13;4.22;;;;;;;4.94;100.00;96733.66;5086882;28;20031;-62
2023/01/18 12:02:13;;;;;;;7.82;3.95;;;;;;;5.21;100.00;96739.63;5074132;28;20032;-69
2023/01/18 12:04:59;;;;;;;8.82;3.95;;;;;;;5.25;100.00;96740.81;5086078;28;20031;-69
2023/01/18 12:07:44;;;;;;;10.98;4.13;;;;;;;5.43;100.00;96736.53;5081553;28;20027;-71
2023/01/18 12:10:22;;;;;;;9.00;4.18;;;;;;;5.64;100.00;96748.69;5073860;28;20027;-70
2023/01/18 12:13:05;;;;;;;9.45;4.50;;;;;;;5.42;100.00;96750.97;5071977;28;20050;-69
2023/01/18 12:16:09;;;;;;;7.47;4.38;;;;;;;4.64;100.00;96764.78;5072289;28;20036;-69
2023/01/18 12:18:46;;;;;;;15.07;5.03;;;;;;;4.38;100.00;96766.59;5069444;28;20043;-69